Time;durP1;ratioP1;P1;durP2;ratioP2;P2;SDS_P1;SDS_P2;PMS_P1;PMS_P2;Temp;Humidity;BMP_temperature;BMP_pressure;BME280_temperature;BME280_humidity;BME280_pressure;Samples;Min_cycle;Max_cycle;Signal;HPM_P1;HPM_P2
2024/01/26 00:00:42;;;;;;;4.75;2.10;;;;;;;5.60;100.00;98385.63;5036028;28;20559;-60
2024/01/26 00:03:08;;;;;;;3.58;1.80;;;;;;;5.64;100.00;98379.88;5046837;28;20040;-58
2024/01/26 00:05:35;;;;;;;3.60;1.90;;;;;;;5.67;100.00;98374.09;5034972;28;20099;-59
2024/01/26 00:08:02;;;;;;;3.75;2.05;;;;;;;5.82;100.00;98388.28;5046622;28;20522;-57
2024/01/26 00:10:29;;;;;;;3.83;2.17;;;;;;;5.91;100.00;98382.75;5046293;28;20040;-59
2024/01/26 00:12:55;;;;;;;3.45;1.83;;;;;;;5.97;100.00;98376.59;5039363;28;20124;-59
2024/01/26 00:15:22;;;;;;;3.97;2.10;;;;;;;5.99;100.00;98359.25;5034539;28;20049;-59
2024/01/26 00:17:48;;;;;;;3.80;2.15;;;;;;;6.06;100.00;98362.00;5040768;28;20068;-58
2024/01/26 00:20:15;;;;;;;4.95;2.05;;;;;;;6.13;100.00;98353.13;5037430;28;20052;-58
2024/01/26 00:22:41;;;;;;;4.55;2.05;;;;;;;6.07;100.00;98346.69;5036647;28;20049;-59
2024/01/26 00:25:08;;;;;;;4.22;1.92;;;;;;;6.02;100.00;98347.25;5038979;28;20049;-58
2024/01/26 00:27:35;;;;;;;4.80;2.10;;;;;;;5.98;100.00;98344.13;5037748;28;20048;-58
2024/01/26 00:30:03;;;;;;;3.80;2.10;;;;;;;6.02;100.00;98343.72;5037896;28;20084;-59
2024/01/26 00:32:29;;;;;;;4.70;2.13;;;;;;;6.04;100.00;98342.53;5039622;28;20037;-59
2024/01/26 00:34:56;;;;;;;5.78;1.83;;;;;;;6.13;100.00;98348.59;5041663;28;20086;-59
2024/01/26 00:37:22;;;;;;;4.50;1.92;;;;;;;6.23;100.00;98345.53;5046648;28;20041;-59
2024/01/26 00:39:49;;;;;;;3.42;1.70;;;;;;;6.26;100.00;98339.75;5044671;28;20501;-58
2024/01/26 00:42:16;;;;;;;2.78;1.42;;;;;;;6.27;100.00;98341.41;5034125;28;20029;-59
2024/01/26 00:44:42;;;;;;;5.53;1.77;;;;;;;6.29;100.00;98331.28;5033184;28;20046;-59
2024/01/26 00:47:09;;;;;;;3.42;1.60;;;;;;;6.31;100.00;98333.78;5042758;28;20056;-58
2024/01/26 00:49:36;;;;;;;2.67;1.45;;;;;;;6.29;100.00;98333.13;5039194;28;20045;-58
2024/01/26 00:52:14;;;;;;;3.42;1.52;;;;;;;6.30;100.00;98329.44;5043435;28;20578;-59
2024/01/26 00:54:41;;;;;;;2.45;1.40;;;;;;;6.28;100.00;98339.53;5040955;28;20084;-57
2024/01/26 00:57:08;;;;;;;2.80;1.30;;;;;;;6.32;100.00;98341.66;5042221;28;20641;-59
2024/01/26 00:59:34;;;;;;;2.80;1.38;;;;;;;6.46;100.00;98350.59;5036718;28;20048;-59
2024/01/26 01:02:01;;;;;;;2.58;1.20;;;;;;;6.48;100.00;98345.00;5047377;28;20072;-60
2024/01/26 01:04:30;;;;;;;3.85;1.30;;;;;;;6.49;100.00;98352.88;5033946;28;20046;-59
2024/01/26 01:06:58;;;;;;;2.80;1.20;;;;;;;6.50;100.00;98348.34;5040296;28;20182;-59
2024/01/26 01:09:25;;;;;;;2.20;1.08;;;;;;;6.56;100.00;98355.59;5038248;28;20045;-57
2024/01/26 01:11:52;;;;;;;3.47;1.20;;;;;;;6.56;100.00;98344.00;5042734;28;20447;-58
2024/01/26 01:14:18;;;;;;;3.55;1.60;;;;;;;6.53;100.00;98345.25;5039645;28;20590;-59
2024/01/26 01:16:46;;;;;;;2.95;1.50;;;;;;;6.54;100.00;98341.53;5040699;28;20069;-59
2024/01/26 01:19:12;;;;;;;2.78;1.23;;;;;;;6.53;100.00;98344.41;5038052;28;20029;-58
2024/01/26 01:21:40;;;;;;;5.00;1.65;;;;;;;6.54;100.00;98338.00;5038077;28;20045;-59
2024/01/26 01:24:06;;;;;;;4.03;1.23;;;;;;;6.54;100.00;98343.38;5038659;28;20052;-59
2024/01/26 01:26:34;;;;;;;3.08;1.17;;;;;;;6.50;100.00;98341.06;5039319;28;20057;-58
2024/01/26 01:29:00;;;;;;;2.25;1.20;;;;;;;6.50;100.00;98354.53;5037025;28;20595;-59
2024/01/26 01:31:27;;;;;;;2.45;1.23;;;;;;;6.54;100.00;98352.28;5025851;28;20051;-58
2024/01/26 01:33:53;;;;;;;2.22;1.10;;;;;;;6.57;100.00;98346.50;5038928;28;20044;-58
2024/01/26 01:36:20;;;;;;;2.88;1.20;;;;;;;6.63;100.00;98353.75;5032859;28;20071;-58
2024/01/26 01:38:47;;;;;;;4.30;1.42;;;;;;;6.67;100.00;98345.28;5037534;28;20037;-60
2024/01/26 01:41:13;;;;;;;5.22;1.45;;;;;;;6.68;100.00;98338.88;5036081;28;20036;-59
2024/01/26 01:43:40;;;;;;;1.92;1.00;;;;;;;6.67;100.00;98332.66;5034457;28;20121;-58
2024/01/26 01:46:08;;;;;;;2.92;1.15;;;;;;;6.59;100.00;98324.75;5038002;28;20051;-58
2024/01/26 01:48:35;;;;;;;2.25;1.00;;;;;;;6.55;100.00;98323.50;5038421;28;20258;-59
2024/01/26 01:51:04;;;;;;;2.03;0.90;;;;;;;6.50;100.00;98316.06;5035505;28;20057;-58
2024/01/26 01:53:31;;;;;;;2.22;1.13;;;;;;;6.52;100.00;98319.34;5037654;28;20540;-59
2024/01/26 01:55:59;;;;;;;1.88;1.10;;;;;;;6.46;100.00;98312.09;5040132;28;20123;-60
2024/01/26 01:58:26;;;;;;;3.05;1.13;;;;;;;6.31;100.00;98307.72;5033374;28;20083;-59
2024/01/26 02:00:52;;;;;;;2.00;0.98;;;;;;;6.25;100.00;98313.88;5040187;28;20147;-59
2024/01/26 02:03:21;;;;;;;2.38;1.02;;;;;;;6.14;100.00;98307.22;5034528;28;20104;-59
2024/01/26 02:05:48;;;;;;;2.03;1.17;;;;;;;6.11;100.00;98307.59;5044433;28;20045;-59
2024/01/26 02:08:14;;;;;;;1.80;1.00;;;;;;;6.10;100.00;98317.56;5039487;28;20048;-59
2024/01/26 02:10:41;;;;;;;2.38;1.10;;;;;;;6.09;100.00;98317.75;5045972;28;20041;-58
2024/01/26 02:13:08;;;;;;;2.72;1.23;;;;;;;5.96;100.00;98307.72;5041898;28;20065;-60
2024/01/26 02:15:34;;;;;;;2.15;1.08;;;;;;;5.89;100.00;98304.19;5036669;28;20048;-59
2024/01/26 02:18:01;;;;;;;2.85;1.20;;;;;;;5.83;100.00;98311.16;5039499;28;21961;-59
2024/01/26 02:20:27;;;;;;;3.08;1.10;;;;;;;5.82;100.00;98310.31;5038610;28;20095;-60
2024/01/26 02:23:25;;;;;;;1.63;0.90;;;;;;;5.82;100.00;98321.09;5033592;28;20063;-59
2024/01/26 02:25:51;;;;;;;2.50;0.95;;;;;;;5.74;100.00;98321.22;5035232;28;20048;-59
2024/01/26 02:28:19;;;;;;;2.47;1.10;;;;;;;5.68;100.00;98320.16;5042555;28;20062;-59
2024/01/26 02:30:45;;;;;;;1.80;1.00;;;;;;;5.66;100.00;98324.06;5034910;28;20056;-59
2024/01/26 02:33:12;;;;;;;2.10;1.20;;;;;;;5.71;100.00;98335.06;5036638;28;20049;-59
2024/01/26 02:35:39;;;;;;;2.25;1.08;;;;;;;5.69;100.00;98329.06;5038533;28;20045;-59
2024/01/26 02:38:06;;;;;;;2.92;1.33;;;;;;;5.68;100.00;98336.28;5039694;28;20483;-59
2024/01/26 02:40:32;;;;;;;1.60;0.93;;;;;;;5.71;100.00;98335.06;5024197;28;20432;-60
2024/01/26 02:42:59;;;;;;;1.90;0.80;;;;;;;5.69;100.00;98331.75;5039822;28;20534;-59
2024/01/26 02:45:26;;;;;;;1.92;1.08;;;;;;;5.66;100.00;98338.34;5040199;28;20076;-58
2024/01/26 02:47:53;;;;;;;2.45;1.10;;;;;;;5.67;100.00;98329.25;5033498;28;20037;-58
2024/01/26 02:50:20;;;;;;;1.95;1.08;;;;;;;5.67;100.00;98320.34;5030305;28;20037;-59
2024/01/26 02:52:47;;;;;;;2.25;0.80;;;;;;;5.70;100.00;98323.50;5036704;28;20049;-59
2024/01/26 02:55:13;;;;;;;0.68;0.65;;;;;;;5.75;100.00;98324.75;5039516;28;20068;-59
2024/01/26 02:57:40;;;;;;;1.35;0.60;;;;;;;5.82;100.00;98331.84;5029641;28;20033;-58
2024/01/26 03:00:07;;;;;;;1.33;0.68;;;;;;;5.84;100.00;98332.47;5032069;28;20577;-59
2024/01/26 03:02:34;;;;;;;0.95;0.60;;;;;;;5.90;100.00;98328.16;5035666;28;20546;-59
2024/01/26 03:05:01;;;;;;;1.13;0.60;;;;;;;5.98;100.00;98313.72;5040657;28;20037;-59
2024/01/26 03:07:27;;;;;;;2.15;1.27;;;;;;;6.05;100.00;98325.38;5033544;28;20103;-58
2024/01/26 03:09:54;;;;;;;1.08;0.40;;;;;;;6.11;100.00;98311.13;5039217;28;20036;-58
2024/01/26 03:12:20;;;;;;;0.75;0.47;;;;;;;6.21;100.00;98301.88;5035166;28;20048;-58
2024/01/26 03:14:47;;;;;;;1.15;0.50;;;;;;;6.24;100.00;98290.72;5034608;28;20063;-60
2024/01/26 03:17:14;;;;;;;0.85;0.40;;;;;;;6.31;100.00;98293.44;5042870;28;20401;-58
2024/01/26 03:19:40;;;;;;;1.17;0.50;;;;;;;6.40;100.00;98304.81;5040013;28;20030;-59
2024/01/26 03:22:07;;;;;;;1.58;0.43;;;;;;;6.43;100.00;98296.34;5044801;28;20047;-60
2024/01/26 03:24:33;;;;;;;1.10;0.60;;;;;;;6.46;100.00;98288.72;5034194;28;20055;-59
2024/01/26 03:27:00;;;;;;;1.10;0.70;;;;;;;6.56;100.00;98292.88;5047378;28;20055;-58
2024/01/26 03:29:27;;;;;;;1.80;0.60;;;;;;;6.67;100.00;98292.28;5033564;28;20056;-58
2024/01/26 03:31:53;;;;;;;2.10;0.82;;;;;;;6.68;100.00;98287.72;5041389;28;20045;-59
2024/01/26 03:34:20;;;;;;;1.02;0.60;;;;;;;6.64;100.00;98282.75;5041966;28;20565;-57
2024/01/26 03:36:47;;;;;;;2.17;0.90;;;;;;;6.64;100.00;98277.38;5037287;28;20084;-59
2024/01/26 03:39:13;;;;;;;2.15;1.02;;;;;;;6.66;100.00;98292.50;5041407;28;20069;-58
2024/01/26 03:41:40;;;;;;;0.95;0.50;;;;;;;6.63;100.00;98289.16;5039638;28;20052;-58
2024/01/26 03:44:07;;;;;;;1.52;0.73;;;;;;;6.59;100.00;98284.38;5039198;28;20048;-59
2024/01/26 03:46:34;;;;;;;1.20;0.85;;;;;;;6.58;100.00;98286.25;5034854;28;20102;-59
2024/01/26 03:49:03;;;;;;;2.30;0.95;;;;;;;6.60;100.00;98280.69;5034113;28;20041;-58
2024/01/26 03:51:30;;;;;;;1.13;0.70;;;;;;;6.62;100.00;98287.53;5034551;28;20049;-59
2024/01/26 03:53:59;;;;;;;1.38;0.68;;;;;;;6.62;100.00;98292.06;5040525;28;20040;-59
2024/01/26 03:56:26;;;;;;;1.85;0.80;;;;;;;6.60;100.00;98294.94;5041183;28;20508;-59
2024/01/26 03:58:53;;;;;;;1.15;0.60;;;;;;;6.63;100.00;98283.78;5040129;28;20044;-59
2024/01/26 04:01:20;;;;;;;1.77;0.70;;;;;;;6.64;100.00;98285.44;5039164;28;20045;-58
2024/01/26 04:03:48;;;;;;;2.08;0.60;;;;;;;6.68;100.00;98285.88;5037543;28;20049;-58
2024/01/26 04:06:15;;;;;;;3.85;0.90;;;;;;;6.68;100.00;98283.19;5043256;28;20102;-59
2024/01/26 04:08:41;;;;;;;2.85;0.90;;;;;;;6.66;100.00;98284.44;5037021;28;20112;-59
2024/01/26 04:11:08;;;;;;;2.65;0.70;;;;;;;6.59;100.00;98273.63;5038492;28;20044;-59
2024/01/26 04:13:34;;;;;;;2.10;0.98;;;;;;;6.55;100.00;98272.38;5047373;28;20110;-59
2024/01/26 04:16:01;;;;;;;2.25;0.75;;;;;;;6.53;100.00;98271.75;5041567;28;20041;-59
2024/01/26 04:18:27;;;;;;;3.25;1.00;;;;;;;6.61;100.00;98269.72;5045508;28;20044;-59
2024/01/26 04:20:54;;;;;;;1.67;0.70;;;;;;;6.68;100.00;98272.41;5030955;28;20046;-58
2024/01/26 04:23:21;;;;;;;0.90;0.60;;;;;;;6.63;100.00;98273.03;5035182;28;20045;-59
2024/01/26 04:25:47;;;;;;;2.03;0.95;;;;;;;6.60;100.00;98267.22;5037192;28;20067;-59
2024/01/26 04:28:14;;;;;;;3.40;0.70;;;;;;;6.63;100.00;98273.03;5049557;28;20530;-58
2024/01/26 04:30:43;;;;;;;1.80;0.80;;;;;;;6.64;100.00;98274.66;5043768;28;20045;-58
2024/01/26 04:33:09;;;;;;;2.10;0.65;;;;;;;6.64;100.00;98263.91;5043109;28;20051;-58
2024/01/26 04:35:36;;;;;;;1.42;0.70;;;;;;;6.60;100.00;98270.72;5036319;28;20107;-59
2024/01/26 04:38:05;;;;;;;1.23;0.60;;;;;;;6.59;100.00;98258.31;5044705;28;20134;-59
2024/01/26 04:40:32;;;;;;;1.80;0.70;;;;;;;6.53;100.00;98253.75;5043501;28;20041;-59
2024/01/26 04:42:58;;;;;;;4.68;0.85;;;;;;;6.45;100.00;98251.25;5048884;28;20044;-58
2024/01/26 04:45:25;;;;;;;1.55;0.68;;;;;;;6.37;100.00;98249.56;5043873;28;20585;-60
2024/01/26 04:47:52;;;;;;;1.23;0.63;;;;;;;6.36;100.00;98262.22;5048086;28;20707;-59
2024/01/26 04:50:19;;;;;;;3.42;0.77;;;;;;;6.37;100.00;98263.00;5038737;28;20051;-58
2024/01/26 04:52:45;;;;;;;2.25;0.80;;;;;;;6.43;100.00;98261.38;5041636;28;20049;-58
2024/01/26 04:55:12;;;;;;;2.33;0.80;;;;;;;6.73;100.00;98261.03;5041103;28;20032;-56
2024/01/26 04:57:38;;;;;;;1.92;0.75;;;;;;;6.97;100.00;98258.78;5042430;28;20065;-59
2024/01/26 05:00:06;;;;;;;1.10;0.60;;;;;;;7.16;100.00;98257.13;5049707;28;20511;-58
2024/01/26 05:02:34;;;;;;;2.83;0.90;;;;;;;7.19;100.00;98251.31;5043328;28;20141;-58
2024/01/26 05:05:00;;;;;;;1.70;0.55;;;;;;;7.36;100.00;98262.50;5039138;28;20079;-59
2024/01/26 05:07:27;;;;;;;0.82;0.47;;;;;;;7.46;100.00;98261.22;5043425;28;20167;-58
2024/01/26 05:09:53;;;;;;;3.35;0.60;;;;;;;7.51;100.00;98256.88;5035298;28;20047;-59
2024/01/26 05:12:20;;;;;;;1.50;0.60;;;;;;;7.42;100.00;98264.34;5045378;28;20044;-57
2024/01/26 05:14:47;;;;;;;3.28;0.80;;;;;;;7.41;100.00;98261.88;5040085;28;20060;-59
2024/01/26 05:17:13;;;;;;;1.55;0.60;;;;;;;7.43;100.00;98257.09;5046170;28;20463;-58
2024/01/26 05:19:40;;;;;;;1.95;0.68;;;;;;;7.49;100.00;98258.13;5029954;28;20041;-57
2024/01/26 05:22:06;;;;;;;1.50;0.70;;;;;;;7.44;100.00;98255.25;5053928;28;20169;-58
2024/01/26 05:24:33;;;;;;;0.50;0.40;;;;;;;7.41;100.00;98262.69;5042776;28;20056;-59
2024/01/26 05:26:59;;;;;;;3.00;0.55;;;;;;;7.47;100.00;98265.56;5040142;28;20599;-59
2024/01/26 05:29:26;;;;;;;2.55;0.70;;;;;;;7.42;100.00;98256.25;5049947;28;20634;-59
2024/01/26 05:31:53;;;;;;;1.48;0.50;;;;;;;7.36;100.00;98254.41;5040873;28;20040;-59
2024/01/26 05:34:19;;;;;;;1.58;0.75;;;;;;;7.34;100.00;98253.78;5045139;28;20042;-60
2024/01/26 05:36:46;;;;;;;2.13;0.82;;;;;;;7.39;100.00;98254.00;5045050;28;20696;-59
2024/01/26 05:39:13;;;;;;;2.28;0.70;;;;;;;7.40;100.00;98252.94;5047271;28;20158;-59
2024/01/26 05:41:40;;;;;;;1.70;0.70;;;;;;;7.42;100.00;98250.06;5045050;28;20409;-59
2024/01/26 05:44:06;;;;;;;2.05;0.52;;;;;;;7.36;100.00;98248.19;5040231;28;20075;-60
2024/01/26 05:46:33;;;;;;;1.33;0.50;;;;;;;7.46;100.00;98251.28;5039964;28;20048;-60
2024/01/26 05:48:59;;;;;;;1.77;0.57;;;;;;;7.52;100.00;98255.81;5039916;28;20041;-58
2024/01/26 05:51:28;;;;;;;1.70;0.52;;;;;;;7.48;100.00;98256.47;5036395;28;20102;-59
2024/01/26 05:53:54;;;;;;;0.65;0.43;;;;;;;7.54;100.00;98255.63;5037459;28;20037;-59
2024/01/26 05:56:24;;;;;;;1.17;0.55;;;;;;;7.58;100.00;98256.03;5046066;28;20115;-60
2024/01/26 05:58:52;;;;;;;1.42;0.55;;;;;;;7.66;100.00;98255.78;5037390;28;20033;-59
2024/01/26 06:01:19;;;;;;;1.27;0.40;;;;;;;7.72;100.00;98246.88;5040606;28;20091;-59
2024/01/26 06:03:45;;;;;;;2.38;0.70;;;;;;;7.78;100.00;98254.09;5042058;28;20523;-57
2024/01/26 06:06:12;;;;;;;1.73;0.70;;;;;;;7.86;100.00;98257.63;5044981;28;20116;-57
2024/01/26 06:08:40;;;;;;;1.08;0.63;;;;;;;7.89;100.00;98259.91;5043917;28;20044;-59
2024/01/26 06:11:11;;;;;;;3.28;1.10;;;;;;;7.88;100.00;98261.75;5040596;28;20037;-59
2024/01/26 06:13:39;;;;;;;2.70;1.00;;;;;;;7.94;100.00;98262.78;5038473;28;20536;-59
2024/01/26 06:16:05;;;;;;;1.55;0.70;;;;;;;7.86;100.00;98263.84;5043381;28;20056;-59
2024/01/26 06:18:32;;;;;;;1.23;0.75;;;;;;;7.89;100.00;98268.00;5037714;28;20120;-59
2024/01/26 06:20:59;;;;;;;1.67;0.70;;;;;;;7.97;100.00;98261.53;5037813;28;20056;-60
2024/01/26 06:23:26;;;;;;;1.58;0.60;;;;;;;8.05;100.00;98251.34;5043874;28;20098;-62
2024/01/26 06:25:53;;;;;;;1.02;0.73;;;;;;;8.02;100.00;98253.63;5035202;28;20123;-60
2024/01/26 06:28:19;;;;;;;2.03;0.70;;;;;;;7.99;100.00;98262.97;5039473;28;20049;-60
2024/01/26 06:30:46;;;;;;;1.48;0.90;;;;;;;8.07;100.00;98267.28;5038232;28;20041;-62
2024/01/26 06:33:12;;;;;;;2.75;0.80;;;;;;;7.92;100.00;98264.84;5035827;28;20538;-61
2024/01/26 06:35:39;;;;;;;2.78;0.90;;;;;;;7.86;100.00;98257.63;5043287;28;20132;-62
2024/01/26 06:38:05;;;;;;;2.00;0.80;;;;;;;7.81;100.00;98258.25;5041968;28;20553;-60
2024/01/26 06:40:32;;;;;;;2.58;0.90;;;;;;;7.80;100.00;98259.28;5038092;28;20049;-61
2024/01/26 06:43:05;;;;;;;2.38;0.80;;;;;;;7.86;100.00;98257.63;5035784;28;20127;-58
2024/01/26 06:45:32;;;;;;;2.47;0.77;;;;;;;7.83;100.00;98253.47;5034525;28;20091;-60
2024/01/26 06:47:59;;;;;;;3.63;1.20;;;;;;;7.81;100.00;98250.16;5044874;28;20076;-61
2024/01/26 06:50:26;;;;;;;2.35;0.95;;;;;;;7.75;100.00;98257.25;5034317;28;20661;-61
2024/01/26 06:52:53;;;;;;;2.63;1.08;;;;;;;7.74;100.00;98258.25;5037366;28;20096;-61
2024/01/26 06:55:19;;;;;;;1.30;0.70;;;;;;;7.79;100.00;98257.66;5031610;28;20103;-61
2024/01/26 06:57:46;;;;;;;1.88;0.90;;;;;;;7.76;100.00;98264.28;5035693;28;20038;-59
2024/01/26 07:00:13;;;;;;;1.58;0.93;;;;;;;7.76;100.00;98258.06;5043482;28;20036;-62
2024/01/26 07:02:40;;;;;;;1.35;0.75;;;;;;;7.73;100.00;98261.16;5032334;28;20566;-61
2024/01/26 07:05:07;;;;;;;2.10;0.95;;;;;;;7.75;100.00;98254.56;5043674;28;20048;-61
2024/01/26 07:07:33;;;;;;;2.50;0.85;;;;;;;7.70;100.00;98256.22;5033032;28;20459;-60
2024/01/26 07:10:00;;;;;;;2.33;0.82;;;;;;;7.76;100.00;98245.41;5038053;28;20036;-60
2024/01/26 07:12:26;;;;;;;1.80;0.90;;;;;;;7.73;100.00;98250.38;5032818;28;20071;-59
2024/01/26 07:14:53;;;;;;;1.83;0.70;;;;;;;7.78;100.00;98254.09;5045594;28;20477;-60
2024/01/26 07:17:19;;;;;;;1.75;0.90;;;;;;;7.76;100.00;98250.81;5042953;28;20099;-61
2024/01/26 07:19:46;;;;;;;4.15;0.95;;;;;;;7.85;100.00;98245.19;5037761;28;20042;-58
2024/01/26 07:22:12;;;;;;;3.20;1.20;;;;;;;7.94;100.00;98244.75;5047863;28;20041;-58
2024/01/26 07:24:39;;;;;;;2.60;1.25;;;;;;;7.91;100.00;98236.22;5035802;28;20050;-61
2024/01/26 07:27:05;;;;;;;4.65;1.02;;;;;;;8.01;100.00;98235.78;5043105;28;20547;-59
2024/01/26 07:29:32;;;;;;;2.15;0.70;;;;;;;7.98;100.00;98244.28;5046349;28;20033;-60
2024/01/26 07:31:58;;;;;;;1.92;0.90;;;;;;;7.86;100.00;98231.50;5045272;28;20120;-60
2024/01/26 07:34:25;;;;;;;1.60;1.00;;;;;;;7.84;100.00;98230.88;5037659;28;20090;-61
2024/01/26 07:36:56;;;;;;;1.10;0.75;;;;;;;7.86;100.00;98233.34;5036687;28;20045;-60
2024/01/26 07:39:23;;;;;;;2.40;1.00;;;;;;;7.99;100.00;98246.78;5043337;28;20040;-59
2024/01/26 07:41:49;;;;;;;1.52;0.85;;;;;;;8.11;100.00;98240.72;5045171;28;20041;-59
2024/01/26 07:44:16;;;;;;;1.80;0.85;;;;;;;8.20;100.00;98250.22;5043194;28;20044;-60
2024/01/26 07:46:42;;;;;;;1.17;0.65;;;;;;;8.29;100.00;98248.13;5031640;28;20631;-61
2024/01/26 07:49:09;;;;;;;1.83;0.90;;;;;;;8.27;100.00;98253.72;5038388;28;20032;-60
2024/01/26 07:51:36;;;;;;;1.92;0.88;;;;;;;8.31;100.00;98241.47;5035031;28;20099;-61
2024/01/26 07:54:03;;;;;;;1.67;0.73;;;;;;;8.32;100.00;98229.63;5032090;28;20111;-60
2024/01/26 07:56:29;;;;;;;2.22;0.88;;;;;;;8.20;100.00;98224.09;5033189;28;20052;-60
2024/01/26 07:58:56;;;;;;;1.67;0.80;;;;;;;8.20;100.00;98229.47;5040477;28;20057;-60
2024/01/26 08:01:23;;;;;;;1.85;0.65;;;;;;;8.22;100.00;98226.53;5041581;28;20041;-61
2024/01/26 08:03:50;;;;;;;1.50;0.70;;;;;;;8.17;100.00;98216.41;5034188;28;20489;-60
2024/01/26 08:06:17;;;;;;;1.30;0.80;;;;;;;8.11;100.00;98217.25;5043601;28;20044;-60
2024/01/26 08:08:43;;;;;;;2.38;0.90;;;;;;;8.06;100.00;98217.91;5037912;28;20033;-61
2024/01/26 08:11:10;;;;;;;1.75;0.90;;;;;;;8.02;100.00;98219.38;5047827;28;20048;-61
2024/01/26 08:13:37;;;;;;;1.58;0.85;;;;;;;8.06;100.00;98211.69;5035099;28;20554;-60
2024/01/26 08:16:04;;;;;;;2.00;0.68;;;;;;;8.13;100.00;98223.28;5037490;28;20083;-59
2024/01/26 08:18:31;;;;;;;1.30;0.73;;;;;;;8.19;100.00;98235.91;5040886;28;20044;-60
2024/01/26 08:20:58;;;;;;;1.58;0.80;;;;;;;8.27;100.00;98232.16;5045646;28;20036;-59
2024/01/26 08:23:25;;;;;;;2.03;0.80;;;;;;;8.30;100.00;98229.00;5045569;28;20571;-60
2024/01/26 08:25:52;;;;;;;3.30;1.10;;;;;;;8.29;100.00;98223.84;5044982;28;20061;-60
2024/01/26 08:28:18;;;;;;;2.17;1.00;;;;;;;8.31;100.00;98213.63;5038742;28;20055;-59
2024/01/26 08:30:45;;;;;;;1.50;0.70;;;;;;;8.41;100.00;98203.19;5030229;28;20527;-60
2024/01/26 08:33:12;;;;;;;1.85;1.00;;;;;;;8.42;100.00;98202.16;5046709;28;20090;-59
2024/01/26 08:35:38;;;;;;;3.33;1.02;;;;;;;8.43;100.00;98184.91;5040334;28;20512;-60
2024/01/26 08:38:05;;;;;;;3.08;0.88;;;;;;;8.49;100.00;98190.50;5040634;28;20129;-61
2024/01/26 08:40:32;;;;;;;1.65;0.90;;;;;;;8.61;100.00;98180.69;5031559;28;20043;-60
2024/01/26 08:42:58;;;;;;;2.17;1.17;;;;;;;8.61;100.00;98177.13;5038165;28;20040;-59
2024/01/26 08:45:25;;;;;;;3.13;0.85;;;;;;;8.67;100.00;98179.78;5034308;28;20049;-59
2024/01/26 08:47:51;;;;;;;1.65;0.70;;;;;;;8.73;100.00;98172.69;5037714;28;20048;-61
2024/01/26 08:50:18;;;;;;;2.35;0.90;;;;;;;8.70;100.00;98176.66;5039211;28;20032;-60
2024/01/26 08:52:45;;;;;;;1.88;0.80;;;;;;;8.80;100.00;98176.16;5039035;28;20056;-60
2024/01/26 08:55:12;;;;;;;2.45;0.73;;;;;;;8.77;100.00;98159.59;5038348;28;20045;-60
2024/01/26 08:57:39;;;;;;;1.55;0.90;;;;;;;8.86;100.00;98158.25;5039378;28;20040;-60
2024/01/26 09:00:08;;;;;;;1.05;0.60;;;;;;;8.93;100.00;98155.50;5044366;28;20102;-60
2024/01/26 09:02:36;;;;;;;1.75;0.85;;;;;;;8.97;100.00;98156.69;5044568;28;20566;-60
2024/01/26 09:05:02;;;;;;;3.22;0.88;;;;;;;9.14;100.00;98159.66;5035494;28;20044;-60
2024/01/26 09:07:29;;;;;;;1.25;0.70;;;;;;;9.24;100.00;98162.69;5041150;28;20056;-59
2024/01/26 09:09:55;;;;;;;2.40;1.00;;;;;;;9.23;100.00;98158.31;5038980;28;20068;-60
2024/01/26 09:12:22;;;;;;;3.00;0.93;;;;;;;9.36;100.00;98156.50;5036407;28;20536;-60
2024/01/26 09:14:48;;;;;;;2.35;0.70;;;;;;;9.30;100.00;98168.22;5048610;28;20044;-60
2024/01/26 09:17:15;;;;;;;1.00;0.63;;;;;;;9.37;100.00;98169.00;5036941;28;20566;-59
2024/01/26 09:19:41;;;;;;;2.47;0.80;;;;;;;9.30;100.00;98170.94;5035473;28;20055;-59
2024/01/26 09:22:08;;;;;;;2.65;1.02;;;;;;;9.23;100.00;98171.00;5042807;28;20128;-60
2024/01/26 09:24:35;;;;;;;2.20;1.00;;;;;;;9.30;100.00;98173.63;5046758;28;20080;-60
2024/01/26 09:27:01;;;;;;;2.25;1.10;;;;;;;9.16;100.00;98167.53;5040447;28;20049;-60
2024/01/26 09:29:28;;;;;;;2.30;0.80;;;;;;;9.31;100.00;98169.88;5043243;28;20041;-60
2024/01/26 09:31:56;;;;;;;1.63;0.80;;;;;;;9.29;100.00;98172.00;5039991;28;20115;-60
2024/01/26 09:34:23;;;;;;;2.33;0.70;;;;;;;9.31;100.00;98169.88;5049392;28;20041;-60
2024/01/26 09:36:50;;;;;;;1.65;0.85;;;;;;;9.22;100.00;98172.88;5034681;28;20497;-60
2024/01/26 09:39:21;;;;;;;3.38;1.42;;;;;;;9.37;100.00;98159.00;5043028;28;20059;-61
2024/01/26 09:41:48;;;;;;;2.72;1.20;;;;;;;9.46;100.00;98156.00;5036097;28;20760;-59
2024/01/26 09:44:15;;;;;;;3.15;0.80;;;;;;;9.54;100.00;98160.28;5045912;28;20044;-61
2024/01/26 09:46:43;;;;;;;2.08;0.82;;;;;;;9.60;100.00;98164.78;5041767;28;20492;-60
2024/01/26 09:49:10;;;;;;;2.53;0.80;;;;;;;9.67;100.00;98162.84;5037168;28;20099;-60
2024/01/26 09:51:38;;;;;;;0.85;0.60;;;;;;;9.68;100.00;98161.78;5045886;28;20049;-59
2024/01/26 09:54:07;;;;;;;3.00;0.90;;;;;;;9.56;100.00;98163.59;5043207;28;20454;-59
2024/01/26 09:56:37;;;;;;;3.92;0.93;;;;;;;9.55;100.00;98156.53;5035581;28;20044;-60
2024/01/26 09:59:05;;;;;;;2.33;0.80;;;;;;;9.59;100.00;98146.91;5039879;28;20044;-60
2024/01/26 10:01:33;;;;;;;2.10;0.70;;;;;;;9.67;100.00;98154.72;5030619;28;20617;-60
2024/01/26 10:04:01;;;;;;;2.08;0.98;;;;;;;9.58;100.00;98156.09;5037365;28;20041;-60
2024/01/26 10:06:27;;;;;;;2.50;0.88;;;;;;;9.81;100.00;98162.66;5026697;28;20046;-59
2024/01/26 10:08:54;;;;;;;2.03;0.85;;;;;;;9.63;100.00;98161.63;5035405;28;20452;-60
2024/01/26 10:11:20;;;;;;;3.88;1.35;;;;;;;9.52;100.00;98165.09;5039803;28;20041;-61
2024/01/26 10:13:47;;;;;;;2.38;1.20;;;;;;;9.56;100.00;98158.16;5041420;28;20047;-59
2024/01/26 10:16:14;;;;;;;2.00;1.02;;;;;;;9.47;100.00;98144.97;5038312;28;20055;-59
2024/01/26 10:18:48;;;;;;;2.22;1.00;;;;;;;9.48;100.00;98149.31;5033931;28;20033;-60
2024/01/26 10:21:16;;;;;;;2.17;0.73;;;;;;;9.74;100.00;98152.75;5033178;28;20515;-60
2024/01/26 10:23:43;;;;;;;3.22;1.00;;;;;;;9.83;100.00;98147.03;5032193;28;20044;-60
2024/01/26 10:26:10;;;;;;;2.28;0.90;;;;;;;9.80;100.00;98150.19;5046131;28;20137;-61
2024/01/26 10:28:38;;;;;;;2.47;1.02;;;;;;;9.82;100.00;98145.38;5027390;28;20574;-60
2024/01/26 10:31:05;;;;;;;1.20;0.60;;;;;;;9.94;100.00;98140.84;5039977;28;20044;-61
2024/01/26 10:33:32;;;;;;;1.95;0.80;;;;;;;9.90;100.00;98134.25;5038647;28;20520;-61
2024/01/26 10:36:00;;;;;;;3.08;0.80;;;;;;;9.79;100.00;98137.72;5046399;28;20083;-58
2024/01/26 10:38:32;;;;;;;1.55;0.70;;;;;;;9.79;100.00;98135.00;5045210;28;20037;-61
2024/01/26 10:41:04;;;;;;;1.77;0.70;;;;;;;9.87;100.00;98132.81;5043548;28;20684;-62
2024/01/26 10:43:31;;;;;;;1.60;0.90;;;;;;;9.92;100.00;98128.59;5038219;28;20044;-61
2024/01/26 10:46:01;;;;;;;1.40;0.80;;;;;;;9.88;100.00;98125.53;5033256;28;20106;-62
2024/01/26 10:48:28;;;;;;;4.28;0.90;;;;;;;9.91;100.00;98122.38;5039652;28;20048;-61
2024/01/26 10:50:55;;;;;;;2.30;0.95;;;;;;;9.94;100.00;98121.06;5047011;28;20514;-60
2024/01/26 10:53:23;;;;;;;3.20;1.00;;;;;;;10.17;100.00;98106.81;5044655;28;20523;-59
2024/01/26 10:55:51;;;;;;;2.25;0.90;;;;;;;10.15;100.00;98108.94;5049972;28;20136;-61
2024/01/26 10:58:18;;;;;;;1.83;0.57;;;;;;;10.08;100.00;98106.31;5035050;28;20752;-59
2024/01/26 11:00:45;;;;;;;2.15;0.90;;;;;;;10.25;100.00;98106.47;5029469;28;20041;-60
2024/01/26 11:03:12;;;;;;;3.00;0.90;;;;;;;10.22;100.00;98111.53;5045807;28;20069;-60
2024/01/26 11:05:38;;;;;;;1.30;0.77;;;;;;;10.14;100.00;98110.00;5041464;28;20405;-60
2024/01/26 11:08:17;;;;;;;2.38;0.88;;;;;;;10.01;100.00;98116.41;5043974;28;20048;-61
2024/01/26 11:10:46;;;;;;;2.33;0.90;;;;;;;10.02;100.00;98110.78;5039710;28;20038;-62
2024/01/26 11:13:15;;;;;;;1.15;0.70;;;;;;;9.82;100.00;98110.22;5044571;28;20045;-62
2024/01/26 11:15:43;;;;;;;1.88;0.77;;;;;;;10.02;100.00;98101.81;5025053;28;20103;-61
2024/01/26 11:18:22;;;;;;;2.30;0.90;;;;;;;10.04;100.00;98101.59;5038948;28;20057;-62
2024/01/26 11:20:49;;;;;;;0.75;0.50;;;;;;;10.05;100.00;98100.53;5041648;28;20046;-60
2024/01/26 11:23:16;;;;;;;1.00;0.70;;;;;;;10.18;100.00;98096.81;5039225;28;20045;-60
2024/01/26 11:25:45;;;;;;;1.23;0.60;;;;;;;10.27;100.00;98092.72;5045623;28;20103;-62
2024/01/26 11:28:17;;;;;;;2.70;1.35;;;;;;;10.32;100.00;98100.16;5042743;28;20519;-60
2024/01/26 11:30:53;;;;;;;9.55;3.42;;;;;;;10.06;100.00;98103.00;5035180;28;20037;-61
2024/01/26 11:33:21;;;;;;;2.42;0.95;;;;;;;9.98;100.00;98095.22;5048759;28;20037;-61